Time;durP1;ratioP1;P1;durP2;ratioP2;P2;SDS_P1;SDS_P2;PMS_P1;PMS_P2;Temp;Humidity;BMP_temperature;BMP_pressure;BME280_temperature;BME280_humidity;BME280_pressure;Samples;Min_cycle;Max_cycle;Signal;HPM_P1;HPM_P2
2023/05/17 00:02:03;;;;;;;4.68;2.53;;;;;;;8.21;67.05;100992.38;10041247;29;20077;-73
2023/05/17 00:07:07;;;;;;;6.60;2.85;;;;;;;8.15;67.59;100984.72;10042735;29;20044;-73
2023/05/17 00:12:10;;;;;;;6.50;3.15;;;;;;;7.93;68.62;100990.50;10041784;29;20073;-73
2023/05/17 00:17:13;;;;;;;8.75;3.00;;;;;;;7.95;68.42;100997.50;10047291;29;20045;-73
2023/05/17 00:22:17;;;;;;;14.63;3.97;;;;;;;8.01;68.62;100998.06;10043949;29;20512;-73
2023/05/17 00:27:20;;;;;;;10.90;3.38;;;;;;;8.04;68.35;100992.53;10040819;29;20053;-74
2023/05/17 00:32:23;;;;;;;14.48;3.70;;;;;;;7.86;69.43;100983.81;10037660;29;20121;-73
2023/05/17 00:37:27;;;;;;;14.63;3.58;;;;;;;8.00;69.17;100986.50;10035883;29;20045;-74
2023/05/17 00:42:30;;;;;;;14.70;4.10;;;;;;;7.95;69.26;100994.81;10038491;29;20144;-74
2023/05/17 00:47:33;;;;;;;15.15;4.30;;;;;;;8.17;68.81;100994.38;10031289;29;20466;-73
2023/05/17 00:52:38;;;;;;;17.33;5.80;;;;;;;8.24;68.66;100992.19;10033451;29;20044;-73
2023/05/17 00:57:41;;;;;;;7.13;3.55;;;;;;;8.15;69.06;100995.44;10037637;29;20052;-73
2023/05/17 01:02:47;;;;;;;9.27;3.40;;;;;;;8.22;69.34;100994.06;10045994;29;20056;-74
2023/05/17 01:07:51;;;;;;;11.68;3.75;;;;;;;8.08;69.95;100989.56;10057405;29;20603;-73
2023/05/17 01:13:02;;;;;;;7.80;3.10;;;;;;;8.17;69.34;100997.06;10038881;29;20052;-74
2023/05/17 01:18:24;;;;;;;10.88;3.97;;;;;;;7.75;70.82;101002.31;10041768;29;20128;-73
2023/05/17 01:23:41;;;;;;;12.30;4.53;;;;;;;7.97;70.81;101002.75;10040439;29;20398;-74
2023/05/17 01:28:51;;;;;;;13.38;3.92;;;;;;;7.92;70.75;101012.84;10041441;29;20053;-73
2023/05/17 01:33:56;;;;;;;14.55;4.13;;;;;;;7.76;71.82;101012.03;10056810;29;20406;-73
2023/05/17 01:39:00;;;;;;;12.25;4.10;;;;;;;7.82;71.01;101014.38;10040131;29;20124;-73
2023/05/17 01:44:12;;;;;;;16.25;4.32;;;;;;;7.68;71.69;101017.88;10042123;29;20054;-74
2023/05/17 01:49:21;;;;;;;18.52;5.20;;;;;;;7.53;72.99;101030.31;10042282;29;20046;-73
2023/05/17 01:54:31;;;;;;;19.70;5.13;;;;;;;7.65;72.46;101029.59;10044155;29;20120;-73
2023/05/17 01:59:38;;;;;;;14.98;4.70;;;;;;;7.49;73.16;101029.63;10043433;29;20049;-73
2023/05/17 02:04:41;;;;;;;13.77;4.28;;;;;;;7.48;73.33;101043.06;10040498;29;20053;-74
2023/05/17 02:09:44;;;;;;;17.25;4.60;;;;;;;7.66;72.67;101036.66;10042302;29;20053;-73
2023/05/17 02:14:49;;;;;;;18.55;5.35;;;;;;;7.62;72.89;101042.28;10056502;29;20540;-74
2023/05/17 02:19:52;;;;;;;18.50;5.07;;;;;;;7.47;73.77;101052.06;10041428;29;20041;-73
2023/05/17 02:24:55;;;;;;;17.13;5.47;;;;;;;7.27;74.06;101050.53;10041683;29;20060;-72
2023/05/17 02:30:00;;;;;;;17.85;4.95;;;;;;;7.43;74.22;101058.50;10038508;29;20037;-75
2023/05/17 02:35:04;;;;;;;19.27;5.63;;;;;;;7.24;74.20;101064.94;10041404;29;20113;-73
2023/05/17 02:40:08;;;;;;;24.40;5.95;;;;;;;7.10;75.56;101070.16;10038830;29;20049;-73
2023/05/17 02:45:13;;;;;;;22.20;5.50;;;;;;;7.46;73.82;101067.25;10039401;29;20098;-73
2023/05/17 02:50:15;;;;;;;21.48;5.88;;;;;;;7.32;74.26;101064.47;10038726;29;20144;-73
2023/05/17 02:55:18;;;;;;;17.90;5.68;;;;;;;6.93;75.79;101071.09;10039567;29;20049;-74
2023/05/17 03:00:23;;;;;;;19.48;6.15;;;;;;;7.35;74.34;101071.44;10029724;29;20116;-74
2023/05/17 03:05:26;;;;;;;22.13;5.85;;;;;;;7.30;74.44;101073.53;10044828;29;20497;-75
2023/05/17 03:10:31;;;;;;;19.58;4.90;;;;;;;7.03;75.00;101069.66;10034368;29;20042;-74
2023/05/17 03:15:36;;;;;;;17.40;5.35;;;;;;;7.06;75.10;101082.81;10037078;29;20110;-73
2023/05/17 03:20:39;;;;;;;18.40;5.25;;;;;;;7.00;75.88;101085.84;10035315;29;20402;-73
2023/05/17 03:25:42;;;;;;;17.83;5.88;;;;;;;7.04;75.15;101081.19;10033125;29;20046;-73
2023/05/17 03:30:46;;;;;;;17.52;6.47;;;;;;;7.06;74.98;101090.00;10038946;29;20110;-73
2023/05/17 03:35:50;;;;;;;15.07;6.15;;;;;;;6.99;75.32;101105.50;10038558;29;20065;-73
2023/05/17 03:40:53;;;;;;;22.50;6.13;;;;;;;7.19;74.71;101114.22;10046344;29;20224;-74
2023/05/17 03:45:58;;;;;;;20.60;6.70;;;;;;;7.21;74.34;101123.88;10042367;29;20057;-73
2023/05/17 03:51:03;;;;;;;19.45;6.03;;;;;;;7.05;74.37;101120.34;10040526;29;20402;-73
2023/05/17 03:56:06;;;;;;;26.85;7.22;;;;;;;7.08;74.32;101125.50;10057400;29;20052;-73
2023/05/17 04:01:10;;;;;;;20.55;6.20;;;;;;;7.06;74.79;101132.72;10046011;29;20124;-73
2023/05/17 04:06:14;;;;;;;21.20;6.03;;;;;;;6.99;74.52;101131.31;10046806;29;20109;-73
2023/05/17 04:11:22;;;;;;;21.83;6.70;;;;;;;6.99;75.51;101126.88;10046155;29;20041;-73
2023/05/17 04:16:27;;;;;;;13.27;5.85;;;;;;;7.16;74.85;101136.63;10058047;29;20053;-73
2023/05/17 04:21:30;;;;;;;17.77;6.38;;;;;;;7.23;74.60;101143.34;10041545;29;20045;-74
2023/05/17 04:26:33;;;;;;;20.30;6.13;;;;;;;7.12;74.83;101148.41;10041125;29;20084;-73
2023/05/17 04:31:37;;;;;;;18.35;5.65;;;;;;;6.92;76.12;101156.66;10038520;29;20045;-73
2023/05/17 04:36:40;;;;;;;22.58;7.78;;;;;;;6.85;76.89;101166.75;10040940;29;20049;-72
2023/05/17 04:41:44;;;;;;;18.38;6.30;;;;;;;7.03;76.28;101179.19;10057451;29;20050;-73
2023/05/17 04:46:52;;;;;;;23.33;7.82;;;;;;;7.46;75.82;101171.50;10039168;29;20541;-74
2023/05/17 04:51:55;;;;;;;25.10;8.63;;;;;;;7.52;75.19;101183.66;10023419;29;20526;-74
2023/05/17 04:57:00;;;;;;;22.48;6.75;;;;;;;7.30;76.36;101192.00;9991239;29;20167;-73
2023/05/17 05:02:22;;;;;;;15.38;5.63;;;;;;;7.80;74.85;101193.66;9987594;29;20101;-72
2023/05/17 05:07:25;;;;;;;32.92;7.45;;;;;;;8.17;73.72;101204.91;9985310;29;20046;-73
2023/05/17 05:12:30;;;;;;;17.40;6.60;;;;;;;8.09;73.47;101218.78;9983365;29;20076;-73
2023/05/17 05:17:35;;;;;;;19.42;6.18;;;;;;;8.59;71.91;101231.03;9983477;29;20426;-73
2023/05/17 05:22:38;;;;;;;18.90;5.82;;;;;;;8.30;73.22;101221.16;9986753;29;20668;-74
2023/05/17 05:27:41;;;;;;;17.20;5.72;;;;;;;8.88;71.61;101239.13;9991296;29;20156;-72
2023/05/17 05:32:46;;;;;;;23.25;5.78;;;;;;;9.04;69.42;101245.28;9995406;29;20302;-74
2023/05/17 05:37:49;;;;;;;20.83;5.68;;;;;;;9.36;68.92;101253.19;9992234;29;20066;-72
2023/05/17 05:42:53;;;;;;;17.50;4.90;;;;;;;9.13;67.89;101264.44;9992547;29;20061;-74
2023/05/17 05:47:57;;;;;;;18.27;4.80;;;;;;;9.54;66.79;101258.34;9994635;29;20050;-74
2023/05/17 05:53:00;;;;;;;15.90;4.88;;;;;;;8.88;67.25;101268.63;9993998;29;20137;-73
2023/05/17 05:58:21;;;;;;;17.05;4.53;;;;;;;9.78;64.80;101264.84;10008772;29;20053;-73
2023/05/17 06:03:26;;;;;;;21.15;4.50;;;;;;;9.96;62.65;101264.69;10011175;29;20435;-72
2023/05/17 06:08:29;;;;;;;12.45;3.30;;;;;;;10.28;59.59;101279.50;9999075;29;20060;-72
2023/05/17 06:13:32;;;;;;;10.38;2.85;;;;;;;10.45;56.59;101286.50;10000650;29;20081;-73
2023/05/17 06:18:36;;;;;;;14.38;2.40;;;;;;;10.61;54.52;101292.56;10003239;29;20057;-73
2023/05/17 06:23:39;;;;;;;17.30;2.72;;;;;;;11.09;53.26;101296.53;9995766;29;20548;-72
2023/05/17 06:28:42;;;;;;;12.07;2.58;;;;;;;11.26;52.92;101301.63;10000881;29;20057;-72
2023/05/17 06:33:47;;;;;;;17.42;2.92;;;;;;;11.03;54.13;101319.34;9998841;29;20050;-73
2023/05/17 06:38:50;;;;;;;11.60;2.70;;;;;;;10.65;54.11;101316.53;10000173;29;20049;-72
2023/05/17 06:43:52;;;;;;;12.25;2.45;;;;;;;10.46;53.88;101324.94;9999625;29;20057;-73
2023/05/17 06:48:57;;;;;;;9.73;2.58;;;;;;;10.47;51.60;101332.03;10003443;29;20137;-72
2023/05/17 06:54:00;;;;;;;10.00;1.52;;;;;;;10.36;49.57;101338.09;9997553;29;20050;-74
2023/05/17 06:59:03;;;;;;;11.40;1.77;;;;;;;10.44;48.78;101333.09;9991074;29;20050;-74
2023/05/17 07:04:07;;;;;;;16.88;2.45;;;;;;;10.38;48.89;101336.19;10011960;29;20110;-73
2023/05/17 07:09:11;;;;;;;10.50;2.78;;;;;;;10.54;47.70;101350.34;9989685;29;20108;-73
2023/05/17 07:14:14;;;;;;;9.20;1.65;;;;;;;11.02;47.22;101353.41;9999943;29;20050;-74
2023/05/17 07:19:18;;;;;;;6.70;1.90;;;;;;;11.52;45.79;101355.44;9995147;29;20053;-74
2023/05/17 07:24:21;;;;;;;11.52;2.58;;;;;;;11.82;45.69;101345.25;10001243;29;20433;-74
2023/05/17 07:29:24;;;;;;;12.50;2.47;;;;;;;11.41;47.15;101359.75;9999026;29;21081;-75
2023/05/17 07:34:30;;;;;;;11.80;1.95;;;;;;;11.46;47.34;101370.19;10004287;29;20598;-73
2023/05/17 07:39:33;;;;;;;13.52;2.00;;;;;;;11.38;47.83;101376.13;10006092;29;20050;-74
2023/05/17 07:44:35;;;;;;;11.05;2.30;;;;;;;11.44;48.97;101382.91;10008409;29;20730;-74
2023/05/17 07:49:40;;;;;;;13.63;2.33;;;;;;;11.19;49.11;101386.38;10006331;29;20514;-73
2023/05/17 07:54:42;;;;;;;13.15;2.50;;;;;;;12.40;45.92;101388.69;10008802;29;20510;-72
2023/05/17 07:59:45;;;;;;;13.23;2.53;;;;;;;12.45;46.00;101388.31;10006080;29;20415;-74
2023/05/17 08:04:50;;;;;;;16.67;2.38;;;;;;;12.04;45.76;101403.81;10010111;29;20057;-73
2023/05/17 08:09:53;;;;;;;11.88;2.13;;;;;;;12.26;45.73;101407.63;10006282;29;20505;-74
2023/05/17 08:14:56;;;;;;;10.13;2.75;;;;;;;11.75;44.93;101407.69;10011605;29;20088;-75
2023/05/17 08:20:00;;;;;;;11.38;2.08;;;;;;;11.71;44.95;101407.91;10004387;29;20730;-74
2023/05/17 08:25:03;;;;;;;13.07;2.30;;;;;;;12.36;45.30;101411.44;10001330;29;20162;-73
2023/05/17 08:30:07;;;;;;;12.98;2.75;;;;;;;11.89;44.35;101427.28;10008897;29;20048;-73
2023/05/17 08:35:18;;;;;;;11.45;2.17;;;;;;;12.08;44.46;101418.75;10000839;29;20057;-74
2023/05/17 08:40:21;;;;;;;8.40;1.77;;;;;;;12.51;44.53;101428.34;10008141;29;20049;-74
2023/05/17 08:45:27;;;;;;;10.63;1.80;;;;;;;12.85;44.41;101434.78;10007634;29;20042;-74
2023/05/17 08:50:33;;;;;;;6.03;1.48;;;;;;;14.66;41.50;101428.84;10002987;29;20049;-74
2023/05/17 08:55:37;;;;;;;8.80;2.92;;;;;;;15.64;37.73;101430.59;10003737;29;20533;-74
2023/05/17 09:00:40;;;;;;;9.65;1.80;;;;;;;14.78;37.77;101440.47;10003126;29;20102;-73
2023/05/17 09:05:45;;;;;;;10.57;2.35;;;;;;;14.42;39.06;101434.38;10003902;29;20457;-73
2023/05/17 09:10:48;;;;;;;11.38;1.50;;;;;;;13.77;40.60;101430.53;10005581;29;20050;-73
2023/05/17 09:15:52;;;;;;;10.32;1.90;;;;;;;13.33;40.71;101425.81;10006803;29;20475;-74
2023/05/17 09:21:02;;;;;;;7.13;1.63;;;;;;;14.05;41.51;101437.31;10001010;29;20057;-74
2023/05/17 09:26:06;;;;;;;12.05;2.58;;;;;;;13.63;41.33;101441.50;10002615;29;20064;-74
2023/05/17 09:31:12;;;;;;;8.40;1.60;;;;;;;13.88;40.35;101433.25;10000059;29;20050;-73
2023/05/17 09:36:17;;;;;;;11.13;1.63;;;;;;;15.66;37.29;101426.75;10001937;29;20166;-74
2023/05/17 09:41:21;;;;;;;8.48;1.55;;;;;;;15.95;36.93;101428.78;10018359;29;20057;-73
2023/05/17 09:46:24;;;;;;;13.95;2.47;;;;;;;15.26;36.93;101422.00;10006086;29;20069;-74
2023/05/17 09:51:36;;;;;;;12.35;2.33;;;;;;;15.45;37.62;101428.59;10001189;29;20540;-74
2023/05/17 09:56:40;;;;;;;10.10;2.25;;;;;;;15.05;37.90;101429.22;10004876;29;20117;-74
2023/05/17 10:01:44;;;;;;;11.60;2.15;;;;;;;14.34;39.04;101428.69;10004894;29;20053;-74
2023/05/17 10:06:51;;;;;;;14.88;2.95;;;;;;;14.33;39.68;101430.56;10002807;29;20078;-74
2023/05/17 10:11:56;;;;;;;8.63;2.08;;;;;;;14.40;39.48;101435.50;10007544;29;20543;-74
2023/05/17 10:17:01;;;;;;;14.48;2.10;;;;;;;14.87;40.02;101430.78;10000137;29;20478;-74
2023/05/17 10:22:06;;;;;;;10.60;1.95;;;;;;;16.26;35.16;101426.94;10004026;29;20057;-74
2023/05/17 10:27:25;;;;;;;5.95;2.00;;;;;;;16.78;34.39;101416.88;10001023;29;20048;-75
2023/05/17 10:32:29;;;;;;;9.95;1.83;;;;;;;16.50;33.18;101423.91;10006759;29;20049;-74
2023/05/17 10:37:33;;;;;;;12.18;2.65;;;;;;;16.52;35.06;101423.78;10000471;29;20056;-74
2023/05/17 10:42:36;;;;;;;12.38;1.80;;;;;;;17.29;34.10;101408.63;10000159;29;20061;-75
2023/05/17 10:47:41;;;;;;;4.78;1.60;;;;;;;15.68;33.70;101413.91;10005808;29;21317;-74
2023/05/17 10:52:49;;;;;;;11.52;2.45;;;;;;;18.24;33.33;101408.59;10012974;29;20065;-74
2023/05/17 10:58:15;;;;;;;7.57;2.25;;;;;;;18.02;31.39;101400.78;10004396;29;20094;-74
2023/05/17 11:03:19;;;;;;;11.40;2.65;;;;;;;17.23;33.58;101410.06;10003317;29;20046;-74
2023/05/17 11:08:23;;;;;;;13.18;2.42;;;;;;;16.11;35.10;101410.19;10002292;29;20062;-74
2023/05/17 11:13:27;;;;;;;12.40;2.83;;;;;;;16.27;34.96;101415.13;10004415;29;21197;-73
2023/05/17 11:18:48;;;;;;;8.77;2.15;;;;;;;15.66;34.38;101404.22;10003313;29;20046;-74
2023/05/17 11:23:56;;;;;;;8.18;2.35;;;;;;;17.42;33.74;101395.63;9995428;29;20053;-74
2023/05/17 11:29:01;;;;;;;12.98;2.38;;;;;;;17.11;33.78;101406.59;9997689;29;20056;-72
2023/05/17 11:34:04;;;;;;;13.02;2.90;;;;;;;15.83;34.20;101408.19;9992606;29;20053;-75
2023/05/17 11:39:13;;;;;;;7.60;1.85;;;;;;;17.38;33.15;101402.31;9989609;29;20053;-74
2023/05/17 11:44:23;;;;;;;8.52;1.40;;;;;;;16.50;34.61;101406.78;9994533;29;20590;-74
2023/05/17 11:49:27;;;;;;;4.50;1.88;;;;;;;16.35;32.78;101406.31;9995800;29;20182;-74
2023/05/17 11:54:37;;;;;;;9.13;1.70;;;;;;;17.54;34.11;101383.59;9999786;29;20141;-75
2023/05/17 11:59:41;;;;;;;10.43;2.05;;;;;;;17.12;33.65;101392.03;10000215;29;20054;-74
2023/05/17 12:04:45;;;;;;;10.30;2.15;;;;;;;19.22;31.50;101404.22;9996378;29;20072;-74
2023/05/17 12:09:50;;;;;;;7.53;1.90;;;;;;;19.97;29.62;101401.09;9994751;29;20923;-74
2023/05/17 12:14:53;;;;;;;9.13;2.42;;;;;;;18.97;31.67;101394.97;9997256;29;20106;-73
2023/05/17 12:19:55;;;;;;;7.38;1.73;;;;;;;18.19;32.59;101412.75;9997462;29;20053;-74
2023/05/17 12:25:00;;;;;;;8.30;2.13;;;;;;;19.37;30.75;101393.66;10000865;29;20090;-73
2023/05/17 12:30:14;;;;;;;7.45;2.72;;;;;;;19.34;31.07;101402.16;10010136;29;20042;-73
2023/05/17 12:35:17;;;;;;;7.97;2.13;;;;;;;18.71;32.03;101404.91;10009862;29;20058;-73
2023/05/17 12:40:21;;;;;;;7.85;2.38;;;;;;;17.98;31.09;101400.22;10006694;29;21147;-72
2023/05/17 12:45:24;;;;;;;11.75;2.15;;;;;;;18.35;32.31;101416.56;9999979;29;20042;-72
2023/05/17 12:50:30;;;;;;;8.07;2.38;;;;;;;18.19;32.17;101423.66;10002573;29;20058;-73
2023/05/17 12:55:38;;;;;;;11.38;2.28;;;;;;;19.96;30.33;101423.06;10004894;29;20042;-73
2023/05/17 13:00:41;;;;;;;8.45;2.20;;;;;;;18.29;31.30;101427.16;10023659;29;20057;-76
2023/05/17 13:05:45;;;;;;;7.70;2.75;;;;;;;20.67;29.08;101422.75;10006572;29;20062;-73
2023/05/17 13:10:49;;;;;;;6.75;1.83;;;;;;;18.85;30.86;101442.50;10001990;29;20261;-73
2023/05/17 13:15:52;;;;;;;11.88;2.38;;;;;;;20.09;30.60;101439.84;10001980;29;20061;-73
2023/05/17 13:20:55;;;;;;;7.75;2.03;;;;;;;17.51;30.90;101431.91;10002822;29;20053;-75
2023/05/17 13:25:59;;;;;;;7.57;1.80;;;;;;;18.29;32.65;101433.47;10002631;29;20088;-75
2023/05/17 13:31:02;;;;;;;12.45;3.15;;;;;;;18.08;30.71;101430.13;10006450;29;20069;-74
2023/05/17 13:36:05;;;;;;;7.65;2.20;;;;;;;18.02;32.80;101431.56;10002524;29;20481;-74
2023/05/17 13:41:10;;;;;;;10.05;2.70;;;;;;;17.15;32.73;101437.06;9994937;29;20057;-73
2023/05/17 13:46:13;;;;;;;5.60;1.70;;;;;;;19.83;29.90;101426.22;10016280;29;20053;-74
2023/05/17 13:51:16;;;;;;;9.05;2.05;;;;;;;19.53;29.05;101419.31;9998435;29;20053;-74
2023/05/17 13:56:21;;;;;;;6.95;1.83;;;;;;;19.34;29.93;101420.38;10002433;29;20053;-74
2023/05/17 14:01:24;;;;;;;8.27;1.83;;;;;;;18.19;32.04;101421.78;10001001;29;20060;-73
2023/05/17 14:06:26;;;;;;;6.03;1.48;;;;;;;17.54;33.03;101415.34;10004147;29;20061;-74
2023/05/17 14:11:31;;;;;;;6.65;1.60;;;;;;;17.35;33.00;101413.47;9997112;29;20054;-73
2023/05/17 14:16:34;;;;;;;5.93;1.83;;;;;;;19.36;30.83;101413.75;10006881;29;20085;-75
2023/05/17 14:21:37;;;;;;;8.52;2.22;;;;;;;19.18;30.63;101408.31;9995635;29;20133;-74
2023/05/17 14:26:41;;;;;;;6.78;2.85;;;;;;;18.27;32.45;101412.88;9998646;29;20573;-74
2023/05/17 14:31:44;;;;;;;7.88;1.98;;;;;;;17.82;33.19;101411.69;9996275;29;20054;-74
2023/05/17 14:36:47;;;;;;;7.72;1.77;;;;;;;17.10;33.42;101409.47;9999744;29;20054;-76
2023/05/17 14:41:51;;;;;;;5.88;2.40;;;;;;;17.08;34.02;101406.03;10003995;29;20520;-73
2023/05/17 14:46:54;;;;;;;7.47;1.88;;;;;;;18.07;31.59;101404.81;9998719;29;20053;-76
2023/05/17 14:51:57;;;;;;;6.50;1.48;;;;;;;18.28;32.49;101415.44;10006550;29;20053;-73
2023/05/17 14:57:02;;;;;;;8.77;1.98;;;;;;;18.73;31.37;101409.19;9997690;29;20095;-74
2023/05/17 15:02:05;;;;;;;4.85;1.50;;;;;;;18.10;30.73;101423.53;10004696;29;20784;-73
2023/05/17 15:07:08;;;;;;;5.65;1.70;;;;;;;17.76;32.33;101420.44;9997071;29;20044;-72
2023/05/17 15:12:13;;;;;;;11.38;2.15;;;;;;;17.03;33.58;101420.00;9997748;29;20086;-73
2023/05/17 15:17:16;;;;;;;5.93;2.30;;;;;;;17.79;34.10;101417.41;10003052;29;20056;-76
2023/05/17 15:22:19;;;;;;;7.55;1.83;;;;;;;19.30;32.01;101408.91;9999489;29;20508;-75
2023/05/17 15:27:23;;;;;;;5.93;1.88;;;;;;;20.63;29.19;101407.72;10003721;29;20049;-74
2023/05/17 15:32:26;;;;;;;9.45;2.00;;;;;;;21.11;29.17;101414.34;9996477;29;20053;-75
2023/05/17 15:37:29;;;;;;;11.02;2.53;;;;;;;21.48;28.52;101414.88;10001214;29;20181;-73
2023/05/17 15:42:34;;;;;;;4.18;1.90;;;;;;;21.47;28.00;101411.28;10003741;29;20066;-76
2023/05/17 15:47:38;;;;;;;7.63;2.13;;;;;;;21.07;28.48;101404.78;10004239;29;20099;-75
2023/05/17 15:52:47;;;;;;;7.72;1.70;;;;;;;20.98;28.96;101398.44;10002750;29;20049;-75
2023/05/17 15:57:51;;;;;;;5.18;1.35;;;;;;;20.65;29.15;101402.97;10010230;29;20142;-74
2023/05/17 16:02:54;;;;;;;7.20;1.80;;;;;;;20.91;29.04;101407.47;10000364;29;20119;-74
2023/05/17 16:07:57;;;;;;;6.80;2.25;;;;;;;20.56;28.98;101407.53;10010768;29;20045;-75
2023/05/17 16:13:01;;;;;;;4.35;1.83;;;;;;;18.54;31.41;101406.56;10005073;29;20080;-74
2023/05/17 16:18:04;;;;;;;5.60;1.85;;;;;;;18.71;31.93;101422.09;10001228;29;20594;-75
2023/05/17 16:23:08;;;;;;;9.77;2.03;;;;;;;19.46;30.88;101419.09;10001156;29;21095;-75
2023/05/17 16:28:12;;;;;;;10.75;2.22;;;;;;;19.33;29.89;101418.63;10005666;29;20049;-76
2023/05/17 16:33:15;;;;;;;8.48;2.05;;;;;;;19.06;30.50;101423.19;10016687;29;20061;-75
2023/05/17 16:38:18;;;;;;;7.35;2.22;;;;;;;19.41;31.29;101418.69;10014587;29;20057;-74
2023/05/17 16:43:22;;;;;;;7.60;2.38;;;;;;;18.87;30.51;101416.00;10013193;29;20049;-74
2023/05/17 16:48:25;;;;;;;4.25;1.40;;;;;;;22.21;27.84;101422.97;10010902;29;20054;-74
2023/05/17 16:53:28;;;;;;;8.38;2.05;;;;;;;26.32;23.68;101404.31;10010729;29;20129;-74
2023/05/17 16:58:32;;;;;;;7.45;1.73;;;;;;;27.94;22.23;101406.13;10011840;29;20052;-74
2023/05/17 17:03:35;;;;;;;8.45;2.60;;;;;;;27.37;22.19;101404.84;10011237;29;20128;-75
2023/05/17 17:08:38;;;;;;;8.68;2.00;;;;;;;28.93;21.17;101413.25;10006033;29;20644;-75
2023/05/17 17:13:42;;;;;;;5.38;1.77;;;;;;;27.05;21.62;101423.06;10009807;29;20141;-76
2023/05/17 17:18:46;;;;;;;6.40;2.08;;;;;;;28.30;20.75;101420.50;10012482;29;20069;-74
2023/05/17 17:23:49;;;;;;;6.50;2.00;;;;;;;29.23;20.37;101415.41;10019081;29;20141;-75
2023/05/17 17:28:54;;;;;;;5.72;1.65;;;;;;;28.72;20.32;101416.34;9995935;29;20065;-74
2023/05/17 17:33:56;;;;;;;11.90;2.50;;;;;;;27.91;21.10;101417.59;10002297;29;20408;-75
2023/05/17 17:38:59;;;;;;;6.70;2.28;;;;;;;27.25;21.28;101417.59;10006067;29;20114;-74
2023/05/17 17:44:04;;;;;;;6.07;1.80;;;;;;;24.07;24.03;101440.25;10004227;29;20163;-74
2023/05/17 17:49:07;;;;;;;5.95;2.47;;;;;;;22.40;26.40;101440.00;9998646;29;20577;-75
2023/05/17 17:54:09;;;;;;;6.28;2.15;;;;;;;21.24;27.50;101446.63;9997955;29;20053;-74
2023/05/17 17:59:14;;;;;;;8.32;2.22;;;;;;;18.55;30.92;101454.53;10001180;29;20064;-74
2023/05/17 18:04:17;;;;;;;7.75;1.95;;;;;;;16.58;33.91;101464.75;10008669;29;20140;-74
2023/05/17 18:09:20;;;;;;;7.53;2.10;;;;;;;15.78;34.81;101467.31;10003552;29;20529;-75
2023/05/17 18:14:25;;;;;;;6.85;1.85;;;;;;;15.20;36.67;101462.28;10003304;29;20048;-74
2023/05/17 18:19:28;;;;;;;9.57;2.65;;;;;;;14.62;37.68;101467.06;10004464;29;20053;-75
2023/05/17 18:24:31;;;;;;;8.98;2.22;;;;;;;14.16;38.92;101469.75;10004797;29;20045;-75
2023/05/17 18:29:35;;;;;;;8.70;1.98;;;;;;;13.89;39.80;101471.91;10008153;29;20065;-74
2023/05/17 18:34:38;;;;;;;8.73;2.28;;;;;;;13.66;40.36;101476.41;10012906;29;20054;-75
2023/05/17 18:39:41;;;;;;;7.40;2.65;;;;;;;13.42;40.69;101479.97;10010887;29;20528;-71
2023/05/17 18:44:45;;;;;;;6.50;2.10;;;;;;;13.14;41.07;101481.19;10007729;29;20421;-73
2023/05/17 18:49:48;;;;;;;16.13;2.83;;;;;;;12.98;41.41;101491.38;10011554;29;20057;-74
2023/05/17 18:54:51;;;;;;;10.38;4.20;;;;;;;12.78;41.98;101491.00;10010484;29;20085;-74
2023/05/17 18:59:55;;;;;;;6.38;2.78;;;;;;;12.54;42.07;101490.09;10008660;29;20049;-74
2023/05/17 19:04:58;;;;;;;12.55;3.10;;;;;;;12.39;42.06;101494.72;10003946;29;20054;-74
2023/05/17 19:10:03;;;;;;;11.25;2.30;;;;;;;12.29;42.53;101504.47;10015841;29;20054;-74
2023/05/17 19:15:08;;;;;;;8.70;2.42;;;;;;;12.08;42.88;101502.25;10018692;29;20046;-75
2023/05/17 19:20:11;;;;;;;7.35;2.22;;;;;;;11.96;43.41;101508.50;10012158;29;20050;-75
2023/05/17 19:25:14;;;;;;;13.20;2.55;;;;;;;11.71;43.90;101506.59;10013213;29;20627;-73
2023/05/17 19:30:20;;;;;;;13.13;2.20;;;;;;;11.50;43.99;101515.19;10013521;29;20864;-73
2023/05/17 19:35:23;;;;;;;10.30;2.00;;;;;;;11.53;44.58;101521.34;10012314;29;20046;-73
2023/05/17 19:40:26;;;;;;;10.98;2.45;;;;;;;11.34;45.30;101524.38;10008604;29;20072;-75
2023/05/17 19:45:30;;;;;;;9.13;1.98;;;;;;;11.13;45.45;101519.44;10008151;29;21217;-76
2023/05/17 19:50:33;;;;;;;9.10;2.38;;;;;;;10.99;45.57;101532.88;10003555;29;20045;-75
2023/05/17 19:55:38;;;;;;;9.23;2.72;;;;;;;10.75;46.06;101530.84;10003509;29;20109;-74
2023/05/17 20:00:43;;;;;;;9.43;2.45;;;;;;;10.71;46.54;101528.44;10013790;29;20050;-73
2023/05/17 20:05:45;;;;;;;10.70;2.25;;;;;;;10.63;46.72;101523.53;10013298;29;21549;-74
2023/05/17 20:10:48;;;;;;;9.52;2.53;;;;;;;10.43;47.21;101540.06;10008942;29;20089;-74
2023/05/17 20:15:53;;;;;;;9.50;2.95;;;;;;;10.35;47.43;101538.69;10013857;29;20058;-74
2023/05/17 20:20:58;;;;;;;6.05;2.50;;;;;;;10.23;47.37;101538.56;10009004;29;20148;-73
2023/05/17 20:26:01;;;;;;;13.05;2.90;;;;;;;10.11;47.57;101537.50;10008181;29;20433;-73
2023/05/17 20:31:05;;;;;;;7.95;2.55;;;;;;;10.05;48.16;101536.06;10000754;29;20053;-73
2023/05/17 20:36:10;;;;;;;8.98;2.58;;;;;;;10.03;48.33;101537.97;10004503;29;20054;-74
2023/05/17 20:41:14;;;;;;;9.40;2.92;;;;;;;9.96;48.74;101542.00;10008363;29;20519;-75
2023/05/17 20:46:19;;;;;;;9.63;2.78;;;;;;;9.93;48.99;101543.06;10015965;29;20097;-74
2023/05/17 20:51:22;;;;;;;14.98;3.47;;;;;;;9.84;49.31;101545.38;10019299;29;20057;-75
2023/05/17 20:56:25;;;;;;;8.25;3.03;;;;;;;9.70;49.63;101544.38;10013824;29;20053;-74
2023/05/17 21:01:30;;;;;;;11.30;3.45;;;;;;;9.65;49.71;101556.31;10019144;29;20057;-74
2023/05/17 21:06:33;;;;;;;10.18;3.30;;;;;;;9.59;49.88;101556.69;10018776;29;20056;-74
2023/05/17 21:11:36;;;;;;;13.65;3.50;;;;;;;9.54;50.42;101548.91;10007438;29;20521;-74
2023/05/17 21:16:40;;;;;;;10.95;3.88;;;;;;;9.50;50.60;101550.03;10005604;29;20058;-73
2023/05/17 21:21:43;;;;;;;9.27;3.67;;;;;;;9.29;50.73;101558.34;10028900;29;20053;-73
2023/05/17 21:26:46;;;;;;;11.52;3.50;;;;;;;9.24;50.92;101557.78;10045185;29;20068;-74
2023/05/17 21:31:50;;;;;;;9.38;3.53;;;;;;;9.20;51.32;101558.03;10062534;29;20063;-73
2023/05/17 21:36:54;;;;;;;8.13;3.45;;;;;;;9.11;51.63;101564.78;10044141;29;20069;-74
2023/05/17 21:41:57;;;;;;;10.07;3.92;;;;;;;9.08;51.49;101567.66;10047054;29;20041;-74
2023/05/17 21:47:01;;;;;;;11.30;3.55;;;;;;;8.99;51.68;101571.69;10045726;29;20053;-74
2023/05/17 21:52:05;;;;;;;12.95;3.90;;;;;;;8.92;52.00;101569.44;10044421;29;20474;-75
2023/05/17 21:57:08;;;;;;;8.52;3.92;;;;;;;8.81;51.93;101568.22;10043837;29;20045;-75
2023/05/17 22:02:12;;;;;;;8.02;3.58;;;;;;;8.73;51.98;101575.81;10043913;29;20054;-74
2023/05/17 22:07:15;;;;;;;14.07;5.53;;;;;;;8.69;52.26;101581.41;10034012;29;20072;-73
2023/05/17 22:12:23;;;;;;;11.63;3.80;;;;;;;8.43;53.02;101577.44;10033483;29;20045;-75
2023/05/17 22:17:29;;;;;;;11.43;4.32;;;;;;;8.42;53.58;101576.56;10027739;29;20034;-74
2023/05/17 22:22:50;;;;;;;9.00;3.80;;;;;;;8.34;53.32;101586.81;10033745;29;20048;-74
2023/05/17 22:27:52;;;;;;;17.67;4.30;;;;;;;8.05;53.72;101586.50;10028171;29;20037;-75
2023/05/17 22:32:57;;;;;;;8.00;4.35;;;;;;;7.95;54.41;101595.94;10034314;29;20055;-74
2023/05/17 22:37:59;;;;;;;12.40;5.38;;;;;;;8.06;54.44;101600.75;10030462;29;20490;-74
2023/05/17 22:43:03;;;;;;;12.75;4.03;;;;;;;8.05;54.88;101594.53;10041120;29;20442;-74
2023/05/17 22:48:07;;;;;;;10.95;4.38;;;;;;;7.84;55.19;101596.47;10044355;29;20053;-74
2023/05/17 22:53:14;;;;;;;11.07;4.00;;;;;;;7.78;55.82;101601.28;10047627;29;20041;-74
2023/05/17 22:58:18;;;;;;;8.07;4.22;;;;;;;7.62;55.90;101601.19;10042603;29;20148;-74
2023/05/17 23:03:22;;;;;;;8.88;4.13;;;;;;;7.50;56.33;101603.50;10049494;29;20407;-73
2023/05/17 23:08:25;;;;;;;10.32;4.40;;;;;;;7.46;56.16;101604.63;10047415;29;20525;-74
2023/05/17 23:13:28;;;;;;;7.57;3.72;;;;;;;7.42;56.29;101612.84;10049458;29;20058;-74
2023/05/17 23:18:32;;;;;;;9.13;4.00;;;;;;;7.38;56.48;101603.25;10042074;29;20090;-74